sensor_id;sensor_type;location;lat;lon;timestamp;pressure;altitude;pressure_sealevel;temperature;humidity
49393;BME280;35268;42.642;23.308;2023-02-04T00:00:11;93695.63;;;2.10;56.85
49393;BME280;35268;42.642;23.308;2023-02-04T00:02:38;93686.16;;;2.09;58.71
49393;BME280;35268;42.642;23.308;2023-02-04T00:05:04;93684.03;;;2.01;60.46
49393;BME280;35268;42.642;23.308;2023-02-04T00:07:29;93690.66;;;2.04;61.53
49393;BME280;35268;42.642;23.308;2023-02-04T00:09:55;93686.41;;;2.03;61.94
49393;BME280;35268;42.642;23.308;2023-02-04T00:12:20;93658.81;;;2.05;62.55
49393;BME280;35268;42.642;23.308;2023-02-04T00:14:46;93681.44;;;1.96;63.28
49393;BME280;35268;42.642;23.308;2023-02-04T00:17:11;93674.84;;;1.88;63.99
49393;BME280;35268;42.642;23.308;2023-02-04T00:19:38;93674.06;;;1.83;64.43
49393;BME280;35268;42.642;23.308;2023-02-04T00:22:04;93674.84;;;1.83;65.47
49393;BME280;35268;42.642;23.308;2023-02-04T00:24:31;93655.69;;;1.77;65.61
49393;BME280;35268;42.642;23.308;2023-02-04T00:26:56;93670.41;;;1.73;65.89
49393;BME280;35268;42.642;23.308;2023-02-04T00:29:22;93667.75;;;1.73;66.24
49393;BME280;35268;42.642;23.308;2023-02-04T00:31:47;93652.00;;;1.73;66.42
49393;BME280;35268;42.642;23.308;2023-02-04T00:34:13;93652.50;;;1.70;66.69
49393;BME280;35268;42.642;23.308;2023-02-04T00:36:38;93644.09;;;1.68;66.92
49393;BME280;35268;42.642;23.308;2023-02-04T00:39:03;93653.56;;;1.69;67.58
49393;BME280;35268;42.642;23.308;2023-02-04T00:41:29;93664.09;;;1.69;67.76
49393;BME280;35268;42.642;23.308;2023-02-04T00:43:54;93658.31;;;1.67;68.13
49393;BME280;35268;42.642;23.308;2023-02-04T00:46:20;93649.63;;;1.62;68.60
49393;BME280;35268;42.642;23.308;2023-02-04T00:48:45;93668.28;;;1.55;68.61
49393;BME280;35268;42.642;23.308;2023-02-04T00:51:10;93658.81;;;1.54;69.07
49393;BME280;35268;42.642;23.308;2023-02-04T00:53:36;93634.66;;;1.57;69.62
49393;BME280;35268;42.642;23.308;2023-02-04T00:56:01;93666.41;;;1.45;70.10
49393;BME280;35268;42.642;23.308;2023-02-04T00:58:27;93639.38;;;1.34;70.54
49393;BME280;35268;42.642;23.308;2023-02-04T01:00:52;93639.88;;;1.31;71.04
49393;BME280;35268;42.642;23.308;2023-02-04T01:03:18;93625.16;;;1.25;71.32
49393;BME280;35268;42.642;23.308;2023-02-04T01:05:43;93624.59;;;1.18;71.82
49393;BME280;35268;42.642;23.308;2023-02-04T01:08:08;93622.00;;;1.23;71.50
49393;BME280;35268;42.642;23.308;2023-02-04T01:10:34;93631.44;;;1.24;71.26
49393;BME280;35268;42.642;23.308;2023-02-04T01:12:59;93615.69;;;1.19;71.41
49393;BME280;35268;42.642;23.308;2023-02-04T01:15:25;93599.94;;;1.19;71.41
49393;BME280;35268;42.642;23.308;2023-02-04T01:17:50;93603.09;;;1.11;71.26
49393;BME280;35268;42.642;23.308;2023-02-04T01:20:16;93604.41;;;1.08;71.05
49393;BME280;35268;42.642;23.308;2023-02-04T01:22:41;93589.19;;;1.10;70.94
49393;BME280;35268;42.642;23.308;2023-02-04T01:25:07;93586.00;;;1.13;70.52
49393;BME280;35268;42.642;23.308;2023-02-04T01:27:32;93586.78;;;1.04;70.53
49393;BME280;35268;42.642;23.308;2023-02-04T01:29:58;93595.47;;;1.09;70.47
49393;BME280;35268;42.642;23.308;2023-02-04T01:32:23;93584.72;;;1.11;70.40
49393;BME280;35268;42.642;23.308;2023-02-04T01:34:49;93577.88;;;1.15;70.42
49393;BME280;35268;42.642;23.308;2023-02-04T01:37:14;93566.34;;;1.21;70.28
49393;BME280;35268;42.642;23.308;2023-02-04T01:39:40;93574.75;;;1.23;70.27
49393;BME280;35268;42.642;23.308;2023-02-04T01:42:05;93587.34;;;1.26;70.41
49393;BME280;35268;42.642;23.308;2023-02-04T01:44:31;93577.91;;;1.25;70.42
49393;BME280;35268;42.642;23.308;2023-02-04T01:46:57;93565.28;;;1.27;69.97
49393;BME280;35268;42.642;23.308;2023-02-04T01:49:22;93556.09;;;1.25;70.20
49393;BME280;35268;42.642;23.308;2023-02-04T01:51:48;93555.84;;;1.21;70.15
49393;BME280;35268;42.642;23.308;2023-02-04T01:54:14;93552.41;;;1.26;69.92
49393;BME280;35268;42.642;23.308;2023-02-04T01:56:44;93555.31;;;1.19;70.16
49393;BME280;35268;42.642;23.308;2023-02-04T01:59:12;93541.41;;;1.18;70.50
49393;BME280;35268;42.642;23.308;2023-02-04T02:01:43;93555.31;;;1.19;70.45
49393;BME280;35268;42.642;23.308;2023-02-04T02:04:10;93551.88;;;1.13;70.49
49393;BME280;35268;42.642;23.308;2023-02-04T02:06:38;93547.69;;;1.12;70.79
49393;BME280;35268;42.642;23.308;2023-02-04T02:09:06;93547.69;;;1.07;70.88
49393;BME280;35268;42.642;23.308;2023-02-04T02:11:32;93539.31;;;1.10;71.01
49393;BME280;35268;42.642;23.308;2023-02-04T02:13:57;93537.97;;;1.13;70.73
49393;BME280;35268;42.642;23.308;2023-02-04T02:16:23;93544.00;;;1.13;70.69
49393;BME280;35268;42.642;23.308;2023-02-04T02:18:49;93506.47;;;1.13;70.80
49393;BME280;35268;42.642;23.308;2023-02-04T02:21:23;93510.66;;;1.14;70.50
49393;BME280;35268;42.642;23.308;2023-02-04T02:23:54;93515.91;;;1.14;70.30
49393;BME280;35268;42.642;23.308;2023-02-04T02:26:25;93509.88;;;1.13;70.18
49393;BME280;35268;42.642;23.308;2023-02-04T02:28:51;93518.81;;;1.12;70.37
49393;BME280;35268;42.642;23.308;2023-02-04T02:31:19;93498.09;;;1.11;70.26
49393;BME280;35268;42.642;23.308;2023-02-04T02:33:45;93481.56;;;1.10;70.62
49393;BME280;35268;42.642;23.308;2023-02-04T02:36:11;93476.81;;;1.12;70.71
49393;BME280;35268;42.642;23.308;2023-02-04T02:38:38;93465.00;;;1.15;70.70
49393;BME280;35268;42.642;23.308;2023-02-04T02:41:04;93454.50;;;1.15;70.39
49393;BME280;35268;42.642;23.308;2023-02-04T02:43:30;93459.75;;;1.15;70.44
49393;BME280;35268;42.642;23.308;2023-02-04T02:45:57;93450.56;;;1.17;70.53
49393;BME280;35268;42.642;23.308;2023-02-04T02:48:24;93442.94;;;1.16;70.48
49393;BME280;35268;42.642;23.308;2023-02-04T02:50:49;93449.78;;;1.17;70.31
49393;BME280;35268;42.642;23.308;2023-02-04T02:53:17;93447.41;;;1.20;70.04
49393;BME280;35268;42.642;23.308;2023-02-04T02:55:43;93452.38;;;1.22;70.06
49393;BME280;35268;42.642;23.308;2023-02-04T02:58:26;93449.78;;;1.27;70.08
49393;BME280;35268;42.642;23.308;2023-02-04T03:00:53;93447.41;;;1.26;69.98
49393;BME280;35268;42.642;23.308;2023-02-04T03:03:23;93423.25;;;1.29;69.79
49393;BME280;35268;42.642;23.308;2023-02-04T03:06:37;93442.94;;;1.26;69.88
49393;BME280;35268;42.642;23.308;2023-02-04T03:08:38;93437.16;;;1.29;69.70
49393;BME280;35268;42.642;23.308;2023-02-04T03:11:04;93429.03;;;1.31;69.90
49393;BME280;35268;42.642;23.308;2023-02-04T03:13:30;93449.78;;;1.32;69.67
49393;BME280;35268;42.642;23.308;2023-02-04T03:15:56;93438.72;;;1.35;69.46
49393;BME280;35268;42.642;23.308;2023-02-04T03:18:22;93443.97;;;1.35;69.42
49393;BME280;35268;42.642;23.308;2023-02-04T03:20:48;93464.97;;;1.35;69.22
49393;BME280;35268;42.642;23.308;2023-02-04T03:23:15;93482.31;;;1.36;69.56
49393;BME280;35268;42.642;23.308;2023-02-04T03:25:41;93454.22;;;1.37;69.50
49393;BME280;35268;42.642;23.308;2023-02-04T03:28:08;93456.84;;;1.32;69.70
49393;BME280;35268;42.642;23.308;2023-02-04T03:30:33;93431.41;;;1.32;69.99
49393;BME280;35268;42.642;23.308;2023-02-04T03:32:59;93447.66;;;1.29;69.65
49393;BME280;35268;42.642;23.308;2023-02-04T03:35:24;93459.50;;;1.27;70.15
49393;BME280;35268;42.642;23.308;2023-02-04T03:37:50;93459.19;;;1.28;70.03
49393;BME280;35268;42.642;23.308;2023-02-04T03:40:15;93449.78;;;1.27;69.94
49393;BME280;35268;42.642;23.308;2023-02-04T03:42:41;93451.88;;;1.25;70.46
49393;BME280;35268;42.642;23.308;2023-02-04T03:45:06;93448.19;;;1.26;69.91
49393;BME280;35268;42.642;23.308;2023-02-04T03:47:32;93415.63;;;1.27;70.07
49393;BME280;35268;42.642;23.308;2023-02-04T03:49:57;93426.66;;;1.29;69.82
49393;BME280;35268;42.642;23.308;2023-02-04T03:52:23;93393.56;;;1.28;69.72
49393;BME280;35268;42.642;23.308;2023-02-04T03:54:48;93413.56;;;1.19;69.64
49393;BME280;35268;42.642;23.308;2023-02-04T03:57:14;93405.44;;;1.10;69.74
49393;BME280;35268;42.642;23.308;2023-02-04T03:59:40;93392.56;;;1.04;70.20
49393;BME280;35268;42.642;23.308;2023-02-04T04:02:06;93381.28;;;1.08;70.36
49393;BME280;35268;42.642;23.308;2023-02-04T04:04:31;93384.66;;;1.14;70.39
49393;BME280;35268;42.642;23.308;2023-02-04T04:06:56;93377.09;;;1.12;70.08
49393;BME280;35268;42.642;23.308;2023-02-04T04:09:22;93364.19;;;1.16;69.75
49393;BME280;35268;42.642;23.308;2023-02-04T04:11:47;93359.19;;;1.19;69.87
49393;BME280;35268;42.642;23.308;2023-02-04T04:14:13;93359.16;;;1.30;69.53
49393;BME280;35268;42.642;23.308;2023-02-04T04:16:38;93356.53;;;1.35;69.58
49393;BME280;35268;42.642;23.308;2023-02-04T04:19:04;93344.72;;;1.43;69.14
49393;BME280;35268;42.642;23.308;2023-02-04T04:21:29;93335.75;;;1.44;68.77
49393;BME280;35268;42.642;23.308;2023-02-04T04:23:54;93353.44;;;1.17;69.31
49393;BME280;35268;42.642;23.308;2023-02-04T04:26:20;93340.00;;;1.24;68.92
49393;BME280;35268;42.642;23.308;2023-02-04T04:28:45;93348.94;;;1.38;68.86
49393;BME280;35268;42.642;23.308;2023-02-04T04:31:11;93364.66;;;1.44;68.77
49393;BME280;35268;42.642;23.308;2023-02-04T04:33:36;93375.16;;;1.49;68.64
49393;BME280;35268;42.642;23.308;2023-02-04T04:36:03;93379.59;;;1.53;68.67
49393;BME280;35268;42.642;23.308;2023-02-04T04:38:29;93350.66;;;1.58;68.61
49393;BME280;35268;42.642;23.308;2023-02-04T04:40:54;93373.81;;;1.46;68.34
49393;BME280;35268;42.642;23.308;2023-02-04T04:43:20;93387.47;;;1.48;68.01
49393;BME280;35268;42.642;23.308;2023-02-04T04:45:45;93396.66;;;1.56;67.35
49393;BME280;35268;42.642;23.308;2023-02-04T04:48:11;93395.06;;;1.60;68.18
49393;BME280;35268;42.642;23.308;2023-02-04T04:50:36;93403.94;;;1.79;66.67
49393;BME280;35268;42.642;23.308;2023-02-04T04:53:01;93401.44;;;2.09;64.87
49393;BME280;35268;42.642;23.308;2023-02-04T04:55:27;93400.50;;;2.34;64.30
49393;BME280;35268;42.642;23.308;2023-02-04T04:57:52;93404.63;;;2.45;63.71
49393;BME280;35268;42.642;23.308;2023-02-04T05:00:19;93416.91;;;2.60;63.76
49393;BME280;35268;42.642;23.308;2023-02-04T05:02:44;93390.59;;;2.60;64.44
49393;BME280;35268;42.642;23.308;2023-02-04T05:05:10;93411.13;;;2.58;65.01
49393;BME280;35268;42.642;23.308;2023-02-04T05:07:36;93383.78;;;2.59;65.26
49393;BME280;35268;42.642;23.308;2023-02-04T05:10:02;93394.28;;;2.59;66.21
49393;BME280;35268;42.642;23.308;2023-02-04T05:12:28;93390.13;;;2.53;67.14
49393;BME280;35268;42.642;23.308;2023-02-04T05:14:53;93380.63;;;2.57;67.40
49393;BME280;35268;42.642;23.308;2023-02-04T05:17:19;93388.78;;;2.55;66.42
49393;BME280;35268;42.642;23.308;2023-02-04T05:19:44;93389.28;;;2.57;66.68
49393;BME280;35268;42.642;23.308;2023-02-04T05:22:09;93404.56;;;2.55;65.04
49393;BME280;35268;42.642;23.308;2023-02-04T05:24:37;93452.44;;;2.57;65.81
49393;BME280;35268;42.642;23.308;2023-02-04T05:27:03;93410.38;;;2.52;64.07
49393;BME280;35268;42.642;23.308;2023-02-04T05:29:28;93423.75;;;2.61;65.13
49393;BME280;35268;42.642;23.308;2023-02-04T05:31:53;93412.47;;;2.50;65.06
49393;BME280;35268;42.642;23.308;2023-02-04T05:34:19;93413.50;;;2.54;65.20
49393;BME280;35268;42.642;23.308;2023-02-04T05:36:44;93422.66;;;2.62;64.51
49393;BME280;35268;42.642;23.308;2023-02-04T05:39:10;93444.00;;;2.60;65.74
49393;BME280;35268;42.642;23.308;2023-02-04T05:41:35;93446.97;;;2.49;64.51
49393;BME280;35268;42.642;23.308;2023-02-04T05:44:01;93454.56;;;2.50;64.71
49393;BME280;35268;42.642;23.308;2023-02-04T05:46:26;93466.69;;;2.51;66.74
49393;BME280;35268;42.642;23.308;2023-02-04T05:48:52;93481.00;;;2.30;68.21
49393;BME280;35268;42.642;23.308;2023-02-04T05:51:17;93476.38;;;2.06;68.49
49393;BME280;35268;42.642;23.308;2023-02-04T05:53:43;93482.19;;;1.98;69.51
49393;BME280;35268;42.642;23.308;2023-02-04T05:56:08;93496.41;;;1.87;69.52
49393;BME280;35268;42.642;23.308;2023-02-04T05:58:34;93471.75;;;1.77;69.63
49393;BME280;35268;42.642;23.308;2023-02-04T06:01:00;93444.41;;;1.73;70.00
49393;BME280;35268;42.642;23.308;2023-02-04T06:03:26;93438.16;;;1.59;67.77
49393;BME280;35268;42.642;23.308;2023-02-04T06:05:51;93431.31;;;1.58;67.03
49393;BME280;35268;42.642;23.308;2023-02-04T06:08:17;93423.97;;;1.65;66.12
49393;BME280;35268;42.642;23.308;2023-02-04T06:10:43;93433.66;;;1.70;64.73
49393;BME280;35268;42.642;23.308;2023-02-04T06:13:08;93449.16;;;1.71;63.96
49393;BME280;35268;42.642;23.308;2023-02-04T06:15:34;93449.13;;;1.76;64.31
49393;BME280;35268;42.642;23.308;2023-02-04T06:17:59;93440.16;;;1.83;63.55
49393;BME280;35268;42.642;23.308;2023-02-04T06:20:24;93439.88;;;1.89;62.93
49393;BME280;35268;42.642;23.308;2023-02-04T06:22:50;93470.91;;;1.92;62.99
49393;BME280;35268;42.642;23.308;2023-02-04T06:25:16;93470.91;;;1.92;63.95
49393;BME280;35268;42.642;23.308;2023-02-04T06:27:42;93473.78;;;1.96;63.38
49393;BME280;35268;42.642;23.308;2023-02-04T06:30:09;93468.78;;;1.94;63.51
49393;BME280;35268;42.642;23.308;2023-02-04T06:32:34;93481.91;;;1.99;62.76
49393;BME280;35268;42.642;23.308;2023-02-04T06:35:00;93467.97;;;2.04;62.16
49393;BME280;35268;42.642;23.308;2023-02-04T06:37:25;93473.97;;;2.15;61.20
49393;BME280;35268;42.642;23.308;2023-02-04T06:39:51;93498.41;;;2.20;60.06
49393;BME280;35268;42.642;23.308;2023-02-04T06:42:18;93467.88;;;2.25;60.10
49393;BME280;35268;42.642;23.308;2023-02-04T06:44:44;93479.94;;;2.31;59.98
49393;BME280;35268;42.642;23.308;2023-02-04T06:47:09;93484.38;;;2.35;60.16
49393;BME280;35268;42.642;23.308;2023-02-04T06:49:35;93467.53;;;2.41;59.66
49393;BME280;35268;42.642;23.308;2023-02-04T06:52:01;93472.25;;;2.45;60.18
49393;BME280;35268;42.642;23.308;2023-02-04T06:54:26;93457.22;;;2.50;60.07
49393;BME280;35268;42.642;23.308;2023-02-04T06:56:51;93455.38;;;2.51;60.12
49393;BME280;35268;42.642;23.308;2023-02-04T06:59:17;93468.56;;;2.46;59.63
49393;BME280;35268;42.642;23.308;2023-02-04T07:01:42;93456.13;;;2.56;60.32
49393;BME280;35268;42.642;23.308;2023-02-04T07:04:08;93452.94;;;2.65;59.74
49393;BME280;35268;42.642;23.308;2023-02-04T07:06:33;93466.81;;;2.70;59.82
49393;BME280;35268;42.642;23.308;2023-02-04T07:08:59;93457.09;;;2.71;59.91
49393;BME280;35268;42.642;23.308;2023-02-04T07:11:24;93487.56;;;2.82;60.22
49393;BME280;35268;42.642;23.308;2023-02-04T07:13:49;93470.72;;;2.83;60.09
49393;BME280;35268;42.642;23.308;2023-02-04T07:16:15;93471.75;;;2.82;59.94
49393;BME280;35268;42.642;23.308;2023-02-04T07:18:40;93451.78;;;2.81;60.69
49393;BME280;35268;42.642;23.308;2023-02-04T07:21:06;93461.47;;;2.86;61.54
49393;BME280;35268;42.642;23.308;2023-02-04T07:23:31;93449.34;;;2.90;59.30
49393;BME280;35268;42.642;23.308;2023-02-04T07:25:56;93435.09;;;2.91;59.11
49393;BME280;35268;42.642;23.308;2023-02-04T07:28:23;93438.47;;;2.96;58.78
49393;BME280;35268;42.642;23.308;2023-02-04T07:30:49;93442.91;;;3.01;58.93
49393;BME280;35268;42.642;23.308;2023-02-04T07:33:14;93427.41;;;2.99;58.43
49393;BME280;35268;42.642;23.308;2023-02-04T07:38:46;93418.94;;;3.03;58.09
49393;BME280;35268;42.642;23.308;2023-02-04T07:41:11;93431.25;;;3.12;57.79
49393;BME280;35268;42.642;23.308;2023-02-04T07:43:37;93415.88;;;3.25;58.20
49393;BME280;35268;42.642;23.308;2023-02-04T07:46:02;93436.34;;;3.33;57.84
49393;BME280;35268;42.642;23.308;2023-02-04T07:48:28;93434.28;;;3.30;57.98
49393;BME280;35268;42.642;23.308;2023-02-04T07:50:53;93433.78;;;3.22;57.57
49393;BME280;35268;42.642;23.308;2023-02-04T07:53:19;93423.78;;;3.25;57.55
49393;BME280;35268;42.642;23.308;2023-02-04T07:55:44;93435.81;;;3.31;57.54
49393;BME280;35268;42.642;23.308;2023-02-04T07:58:09;93429.72;;;3.35;57.72
49393;BME280;35268;42.642;23.308;2023-02-04T08:00:35;93418.22;;;3.26;57.83
49393;BME280;35268;42.642;23.308;2023-02-04T08:03:00;93434.03;;;3.26;57.88
49393;BME280;35268;42.642;23.308;2023-02-04T08:05:26;93428.03;;;3.20;58.22
49393;BME280;35268;42.642;23.308;2023-02-04T08:07:51;93417.25;;;3.17;58.00
49393;BME280;35268;42.642;23.308;2023-02-04T08:10:16;93439.41;;;3.11;58.35
49393;BME280;35268;42.642;23.308;2023-02-04T08:12:42;93431.06;;;3.04;59.05
49393;BME280;35268;42.642;23.308;2023-02-04T08:15:08;93442.13;;;3.00;59.57
49393;BME280;35268;42.642;23.308;2023-02-04T08:17:34;93432.97;;;2.93;59.66
49393;BME280;35268;42.642;23.308;2023-02-04T08:19:59;93426.84;;;3.03;59.67
49393;BME280;35268;42.642;23.308;2023-02-04T08:22:25;93448.50;;;2.94;59.96
49393;BME280;35268;42.642;23.308;2023-02-04T08:24:50;93439.31;;;2.92;60.06
49393;BME280;35268;42.642;23.308;2023-02-04T08:27:16;93442.47;;;2.94;60.08
49393;BME280;35268;42.642;23.308;2023-02-04T08:29:41;93438.75;;;2.95;59.89
49393;BME280;35268;42.642;23.308;2023-02-04T08:32:06;93460.84;;;2.99;59.36
49393;BME280;35268;42.642;23.308;2023-02-04T08:34:34;93416.59;;;3.01;59.96
49393;BME280;35268;42.642;23.308;2023-02-04T08:36:59;93428.47;;;2.98;60.07
49393;BME280;35268;42.642;23.308;2023-02-04T08:39:25;93421.94;;;2.91;60.91
49393;BME280;35268;42.642;23.308;2023-02-04T08:41:50;93455.88;;;2.92;60.42
49393;BME280;35268;42.642;23.308;2023-02-04T08:44:16;93422.44;;;2.93;60.77
49393;BME280;35268;42.642;23.308;2023-02-04T08:46:41;93416.13;;;2.94;60.82
49393;BME280;35268;42.642;23.308;2023-02-04T08:49:07;93419.63;;;2.84;60.91
49393;BME280;35268;42.642;23.308;2023-02-04T08:51:32;93397.19;;;2.92;60.18
49393;BME280;35268;42.642;23.308;2023-02-04T08:53:58;93395.59;;;2.91;60.12
49393;BME280;35268;42.642;23.308;2023-02-04T08:56:23;93407.16;;;2.95;60.43
49393;BME280;35268;42.642;23.308;2023-02-04T08:58:49;93401.63;;;2.96;59.80
49393;BME280;35268;42.642;23.308;2023-02-04T09:01:17;93423.44;;;3.02;59.21
49393;BME280;35268;42.642;23.308;2023-02-04T09:03:42;93400.53;;;3.03;59.49
49393;BME280;35268;42.642;23.308;2023-02-04T09:06:09;93402.63;;;3.06;59.24
49393;BME280;35268;42.642;23.308;2023-02-04T09:08:35;93399.13;;;3.10;58.63
49393;BME280;35268;42.642;23.308;2023-02-04T09:11:00;93406.16;;;3.20;58.01
49393;BME280;35268;42.642;23.308;2023-02-04T09:13:26;93416.19;;;3.18;58.16
49393;BME280;35268;42.642;23.308;2023-02-04T09:15:52;93413.50;;;3.23;58.14
49393;BME280;35268;42.642;23.308;2023-02-04T09:18:17;93395.56;;;3.25;57.56
49393;BME280;35268;42.642;23.308;2023-02-04T09:20:46;93384.00;;;3.26;56.84
49393;BME280;35268;42.642;23.308;2023-02-04T09:23:12;93403.16;;;3.32;57.05
49393;BME280;35268;42.642;23.308;2023-02-04T09:25:38;93394.97;;;3.33;56.93
49393;BME280;35268;42.642;23.308;2023-02-04T09:28:05;93392.56;;;3.37;57.03
49393;BME280;35268;42.642;23.308;2023-02-04T09:30:31;93402.88;;;3.33;57.29
49393;BME280;35268;42.642;23.308;2023-02-04T09:32:56;93403.06;;;3.42;58.00
49393;BME280;35268;42.642;23.308;2023-02-04T09:35:22;93394.03;;;3.24;59.17
49393;BME280;35268;42.642;23.308;2023-02-04T09:37:47;93404.66;;;3.14;61.57
49393;BME280;35268;42.642;23.308;2023-02-04T09:40:14;93415.28;;;3.04;62.64
49393;BME280;35268;42.642;23.308;2023-02-04T09:42:42;93396.09;;;2.98;63.02
49393;BME280;35268;42.642;23.308;2023-02-04T09:45:18;93394.47;;;3.02;63.63
49393;BME280;35268;42.642;23.308;2023-02-04T09:47:44;93394.50;;;2.97;64.15
49393;BME280;35268;42.642;23.308;2023-02-04T09:50:15;93396.94;;;2.93;65.81
49393;BME280;35268;42.642;23.308;2023-02-04T09:52:43;93378.09;;;2.76;65.13
49393;BME280;35268;42.642;23.308;2023-02-04T09:55:13;93388.63;;;2.76;66.12
49393;BME280;35268;42.642;23.308;2023-02-04T09:57:39;93367.03;;;2.79;65.07
49393;BME280;35268;42.642;23.308;2023-02-04T10:00:14;93367.16;;;2.93;64.30
49393;BME280;35268;42.642;23.308;2023-02-04T10:02:40;93391.59;;;2.98;63.04
49393;BME280;35268;42.642;23.308;2023-02-04T10:05:12;93352.19;;;2.93;62.36
49393;BME280;35268;42.642;23.308;2023-02-04T10:07:39;93364.81;;;2.91;62.07
49393;BME280;35268;42.642;23.308;2023-02-04T10:10:04;93359.84;;;2.90;62.09
49393;BME280;35268;42.642;23.308;2023-02-04T10:12:30;93367.97;;;2.93;62.21
49393;BME280;35268;42.642;23.308;2023-02-04T10:14:57;93358.47;;;2.97;61.77
49393;BME280;35268;42.642;23.308;2023-02-04T10:17:22;93364.75;;;3.01;61.04
49393;BME280;35268;42.642;23.308;2023-02-04T10:19:48;93345.22;;;3.03;61.71
49393;BME280;35268;42.642;23.308;2023-02-04T10:22:20;93354.75;;;2.98;63.36
49393;BME280;35268;42.642;23.308;2023-02-04T10:24:45;93338.00;;;2.89;63.33
49393;BME280;35268;42.642;23.308;2023-02-04T10:27:12;93332.16;;;2.92;63.46
49393;BME280;35268;42.642;23.308;2023-02-04T10:29:40;93335.81;;;2.96;63.21
49393;BME280;35268;42.642;23.308;2023-02-04T10:32:27;93329.00;;;2.95;63.75
49393;BME280;35268;42.642;23.308;2023-02-04T10:35:00;93354.25;;;2.96;64.06
49393;BME280;35268;42.642;23.308;2023-02-04T10:37:27;93334.34;;;2.85;65.56
49393;BME280;35268;42.642;23.308;2023-02-04T10:39:54;93355.53;;;2.70;68.24
49393;BME280;35268;42.642;23.308;2023-02-04T10:42:24;93345.69;;;2.46;69.57
49393;BME280;35268;42.642;23.308;2023-02-04T10:44:51;93351.00;;;2.41;70.80
49393;BME280;35268;42.642;23.308;2023-02-04T10:47:22;93337.06;;;2.40;70.90
49393;BME280;35268;42.642;23.308;2023-02-04T10:49:57;93332.66;;;2.31;70.74
49393;BME280;35268;42.642;23.308;2023-02-04T10:52:32;93357.38;;;2.30;70.41
49393;BME280;35268;42.642;23.308;2023-02-04T10:54:59;93351.84;;;2.31;69.62
49393;BME280;35268;42.642;23.308;2023-02-04T10:57:28;93327.34;;;2.41;68.92
49393;BME280;35268;42.642;23.308;2023-02-04T10:59:56;93331.75;;;2.51;68.94
49393;BME280;35268;42.642;23.308;2023-02-04T11:05:15;93317.13;;;2.69;66.78
49393;BME280;35268;42.642;23.308;2023-02-04T11:07:41;93314.34;;;2.84;65.39
49393;BME280;35268;42.642;23.308;2023-02-04T11:10:20;93303.44;;;2.96;65.34
49393;BME280;35268;42.642;23.308;2023-02-04T11:12:59;93297.72;;;3.13;64.58
49393;BME280;35268;42.642;23.308;2023-02-04T11:15:47;93310.56;;;3.19;63.32
49393;BME280;35268;42.642;23.308;2023-02-04T11:18:24;93309.44;;;3.26;63.33
49393;BME280;35268;42.642;23.308;2023-02-04T11:20:54;93296.88;;;3.17;62.57
49393;BME280;35268;42.642;23.308;2023-02-04T11:28:54;93294.59;;;3.35;63.23
49393;BME280;35268;42.642;23.308;2023-02-04T11:33:46;93298.41;;;3.24;63.76
49393;BME280;35268;42.642;23.308;2023-02-04T11:36:13;93298.63;;;3.27;63.75
49393;BME280;35268;42.642;23.308;2023-02-04T11:38:44;93299.63;;;3.31;63.95
49393;BME280;35268;42.642;23.308;2023-02-04T11:41:28;93320.69;;;3.31;62.76
49393;BME280;35268;42.642;23.308;2023-02-04T11:43:55;93296.50;;;3.29;63.98
49393;BME280;35268;42.642;23.308;2023-02-04T11:46:22;93302.84;;;3.28;64.19
49393;BME280;35268;42.642;23.308;2023-02-04T11:48:52;93300.88;;;3.39;64.75
49393;BME280;35268;42.642;23.308;2023-02-04T11:51:21;93309.53;;;3.39;64.79
49393;BME280;35268;42.642;23.308;2023-02-04T11:53:51;93316.31;;;3.21;64.63
49393;BME280;35268;42.642;23.308;2023-02-04T11:56:20;93306.81;;;3.26;65.55
49393;BME280;35268;42.642;23.308;2023-02-04T11:58:47;93309.16;;;3.27;65.43
49393;BME280;35268;42.642;23.308;2023-02-04T12:01:17;93307.91;;;3.19;66.04
49393;BME280;35268;42.642;23.308;2023-02-04T12:03:48;93310.34;;;3.16;66.08
49393;BME280;35268;42.642;23.308;2023-02-04T12:06:26;93302.66;;;2.95;67.28
49393;BME280;35268;42.642;23.308;2023-02-04T12:11:54;93311.16;;;2.87;67.79
49393;BME280;35268;42.642;23.308;2023-02-04T12:14:20;93300.03;;;2.95;69.38
49393;BME280;35268;42.642;23.308;2023-02-04T12:16:47;93305.84;;;2.92;69.09
49393;BME280;35268;42.642;23.308;2023-02-04T12:19:13;93305.34;;;2.90;69.21
49393;BME280;35268;42.642;23.308;2023-02-04T12:21:39;93310.09;;;2.88;69.26
49393;BME280;35268;42.642;23.308;2023-02-04T12:24:05;93309.91;;;2.79;69.80
49393;BME280;35268;42.642;23.308;2023-02-04T12:26:31;93306.59;;;2.69;69.92
49393;BME280;35268;42.642;23.308;2023-02-04T12:28:56;93289.78;;;2.65;70.90
49393;BME280;35268;42.642;23.308;2023-02-04T12:31:24;93288.47;;;2.62;71.38
49393;BME280;35268;42.642;23.308;2023-02-04T12:33:49;93284.53;;;2.65;70.91
49393;BME280;35268;42.642;23.308;2023-02-04T12:36:15;93281.00;;;2.74;69.43
49393;BME280;35268;42.642;23.308;2023-02-04T12:38:40;93283.88;;;2.78;68.39
49393;BME280;35268;42.642;23.308;2023-02-04T12:41:06;93283.84;;;2.83;67.02
49393;BME280;35268;42.642;23.308;2023-02-04T12:43:31;93291.44;;;2.85;67.12
49393;BME280;35268;42.642;23.308;2023-02-04T12:45:56;93293.00;;;2.86;67.16
49393;BME280;35268;42.642;23.308;2023-02-04T12:48:22;93290.28;;;2.96;67.23
49393;BME280;35268;42.642;23.308;2023-02-04T12:50:47;93277.88;;;2.96;65.33
49393;BME280;35268;42.642;23.308;2023-02-04T12:53:13;93294.53;;;2.92;65.08
49393;BME280;35268;42.642;23.308;2023-02-04T12:55:38;93295.53;;;2.96;65.64
49393;BME280;35268;42.642;23.308;2023-02-04T12:58:03;93293.16;;;2.99;65.58
49393;BME280;35268;42.642;23.308;2023-02-04T13:00:29;93287.56;;;3.01;65.79
49393;BME280;35268;42.642;23.308;2023-02-04T13:02:54;93296.81;;;2.98;65.42
49393;BME280;35268;42.642;23.308;2023-02-04T13:05:23;93298.94;;;2.96;65.14
49393;BME280;35268;42.642;23.308;2023-02-04T13:07:48;93299.22;;;2.95;65.66
49393;BME280;35268;42.642;23.308;2023-02-04T13:10:14;93296.38;;;2.91;65.33
49393;BME280;35268;42.642;23.308;2023-02-04T13:12:40;93302.56;;;2.76;65.65